createdAt,value
2017-05-15T00:00:04.853Z,1025.9
2017-05-15T00:01:26.982Z,1025.89
2017-05-15T00:02:49.302Z,1025.89
2017-05-15T00:04:11.600Z,1025.93
2017-05-15T00:05:33.742Z,1025.92
2017-05-15T00:06:55.892Z,1025.88
2017-05-15T00:08:18.030Z,1025.95
2017-05-15T00:09:40.191Z,1025.9
2017-05-15T00:11:02.062Z,1025.82
2017-05-15T00:12:24.191Z,1025.86
2017-05-15T00:13:46.020Z,1025.84
2017-05-15T00:15:08.161Z,1025.87
2017-05-15T00:16:30.010Z,1025.87
2017-05-15T00:17:52.610Z,1025.89
2017-05-15T00:19:14.130Z,1025.92
2017-05-15T00:20:35.703Z,1025.91
2017-05-15T00:21:57.262Z,1025.95
2017-05-15T00:23:18.831Z,1025.96
2017-05-15T00:24:40.988Z,1025.97
2017-05-15T00:26:02.507Z,1025.98
2017-05-15T00:27:24.662Z,1026.02
2017-05-15T00:28:47.670Z,1026.04
2017-05-15T00:30:09.516Z,1026.04
2017-05-15T00:31:31.661Z,1026.05
2017-05-15T00:32:53.399Z,1026.06
2017-05-15T00:34:16.210Z,1026.04
2017-05-15T00:35:38.031Z,1026.06
2017-05-15T00:37:00.182Z,1026.06
2017-05-15T00:38:22.325Z,1026.08
2017-05-15T00:39:45.153Z,1026.08
2017-05-15T00:41:06.999Z,1026.1
2017-05-15T00:42:29.219Z,1026.1
2017-05-15T00:43:51.056Z,1026.11
2017-05-15T00:45:13.570Z,1026.11
2017-05-15T00:46:35.723Z,1026.12
2017-05-15T00:47:58.184Z,1026.11
2017-05-15T00:49:20.099Z,1026.09
2017-05-15T00:50:42.619Z,1026.15
2017-05-15T00:52:05.076Z,1026.15
2017-05-15T00:53:27.329Z,1026.21
2017-05-15T00:54:48.216Z,1026.22
2017-05-15T00:56:10.728Z,1026.28
2017-05-15T00:57:32.870Z,1026.28
2017-05-15T00:58:55.092Z,1026.26
2017-05-15T01:00:17.262Z,1026.29
2017-05-15T01:01:39.732Z,1026.28
2017-05-15T01:03:02.186Z,1026.28
2017-05-15T01:04:24.375Z,1026.3
2017-05-15T01:05:46.200Z,1026.31
2017-05-15T01:07:08.023Z,1026.29
2017-05-15T01:08:29.927Z,1026.33
2017-05-15T01:09:52.080Z,1026.32
2017-05-15T01:11:14.222Z,1026.38
2017-05-15T01:12:36.665Z,1026.35
2017-05-15T01:13:57.921Z,1026.4
2017-05-15T01:15:19.758Z,1026.41
2017-05-15T01:16:41.997Z,1026.46
2017-05-15T01:18:03.238Z,1026.48
2017-05-15T01:19:25.107Z,1026.51
2017-05-15T01:20:47.650Z,1026.54
2017-05-15T01:22:10.118Z,1026.59
2017-05-15T01:23:33.065Z,1026.62
2017-05-15T01:24:54.588Z,1026.66
2017-05-15T01:26:16.420Z,1026.73
2017-05-15T01:27:38.980Z,1026.77
2017-05-15T01:29:01.213Z,1026.81
2017-05-15T01:30:23.063Z,1026.8
2017-05-15T01:31:44.579Z,1026.79
2017-05-15T01:33:06.468Z,1026.85
2017-05-15T01:34:28.319Z,1026.86
2017-05-15T01:35:49.829Z,1026.87
2017-05-15T01:37:11.973Z,1026.9
2017-05-15T01:38:33.607Z,1026.93
2017-05-15T01:39:56.047Z,1026.88
2017-05-15T01:41:18.526Z,1026.94
2017-05-15T01:42:40.336Z,1026.93
2017-05-15T01:44:01.849Z,1026.95
2017-05-15T01:45:24.038Z,1026.93
2017-05-15T01:46:46.497Z,1026.98
2017-05-15T01:48:08.329Z,1026.99
2017-05-15T01:49:30.156Z,1027.02
2017-05-15T01:50:52.328Z,1027.01
2017-05-15T01:52:13.858Z,1027.06
2017-05-15T01:53:35.522Z,1027.04
2017-05-15T01:54:57.409Z,1027.03
2017-05-15T01:56:19.680Z,1027.09
2017-05-15T01:57:41.201Z,1027.06
2017-05-15T01:59:03.361Z,1027.05
2017-05-15T02:00:25.199Z,1027.06
2017-05-15T02:01:47.071Z,1027.02
2017-05-15T02:03:08.598Z,1027.07
2017-05-15T02:04:30.119Z,1027.13
2017-05-15T02:05:51.681Z,1027.18
2017-05-15T02:07:13.819Z,1027.21
2017-05-15T02:08:35.968Z,1027.2
2017-05-15T02:09:57.490Z,1027.25
2017-05-15T02:11:19.978Z,1027.23
2017-05-15T02:12:41.779Z,1027.28
2017-05-15T02:14:03.914Z,1027.27
2017-05-15T02:15:25.738Z,1027.27
2017-05-15T02:16:47.883Z,1027.34
2017-05-15T02:18:10.019Z,1027.34
2017-05-15T02:19:32.189Z,1027.34
2017-05-15T02:20:54.346Z,1027.35
2017-05-15T02:22:16.519Z,1027.35
2017-05-15T02:23:39.065Z,1027.36
2017-05-15T02:25:00.909Z,1027.35
2017-05-15T02:26:22.739Z,1027.4
2017-05-15T02:27:44.935Z,1027.38
2017-05-15T02:29:07.489Z,1027.44
2017-05-15T02:30:29.396Z,1027.37
2017-05-15T02:31:51.026Z,1027.38
2017-05-15T02:33:12.949Z,1027.35
2017-05-15T02:34:34.857Z,1027.38
2017-05-15T02:35:56.439Z,1027.44
2017-05-15T02:37:18.895Z,1027.43
2017-05-15T02:38:40.714Z,1027.44
2017-05-15T02:40:02.591Z,1027.45
2017-05-15T02:41:25.051Z,1027.49
2017-05-15T02:42:46.595Z,1027.47
2017-05-15T02:44:08.728Z,1027.49
2017-05-15T02:45:31.222Z,1027.48
2017-05-15T02:46:52.417Z,1027.51
2017-05-15T02:48:14.582Z,1027.47
2017-05-15T02:49:36.089Z,1027.5
2017-05-15T02:50:58.221Z,1027.49
2017-05-15T02:52:19.748Z,1027.52
2017-05-15T02:53:41.582Z,1027.54
2017-05-15T02:55:03.448Z,1027.58
2017-05-15T02:56:25.454Z,1027.57
2017-05-15T02:57:47.017Z,1027.6
2017-05-15T02:59:08.624Z,1027.63
2017-05-15T03:00:30.128Z,1027.61
2017-05-15T03:01:52.384Z,1027.61
2017-05-15T03:03:13.907Z,1027.63
2017-05-15T03:04:35.421Z,1027.61
2017-05-15T03:05:56.617Z,1027.59
2017-05-15T03:07:18.749Z,1027.66
2017-05-15T03:08:40.262Z,1027.66
2017-05-15T03:10:02.515Z,1027.67
2017-05-15T03:11:24.019Z,1027.67
2017-05-15T03:12:45.882Z,1027.66
2017-05-15T03:14:07.490Z,1027.67
2017-05-15T03:15:29.124Z,1027.72
2017-05-15T03:16:51.279Z,1027.71
2017-05-15T03:18:13.726Z,1027.7
2017-05-15T03:19:35.558Z,1027.72
2017-05-15T03:20:57.720Z,1027.78
2017-05-15T03:22:19.858Z,1027.76
2017-05-15T03:23:41.619Z,1027.75
2017-05-15T03:25:03.487Z,1027.77
2017-05-15T03:26:25.095Z,1027.76
2017-05-15T03:27:46.918Z,1027.78
2017-05-15T03:29:09.127Z,1027.82
2017-05-15T03:30:30.628Z,1027.84
2017-05-15T03:31:52.128Z,1027.84
2017-05-15T03:33:14.293Z,1027.87
2017-05-15T03:34:35.867Z,1027.87
2017-05-15T03:35:58.009Z,1027.95
2017-05-15T03:37:20.519Z,1027.92
2017-05-15T03:38:42.069Z,1027.92
2017-05-15T03:40:04.529Z,1027.91
2017-05-15T03:41:26.667Z,1027.96
2017-05-15T03:42:49.137Z,1027.99
2017-05-15T03:44:10.764Z,1027.97
2017-05-15T03:45:32.659Z,1028.02
2017-05-15T03:46:54.556Z,1028.03
2017-05-15T03:48:16.698Z,1028.03
2017-05-15T03:49:38.516Z,1028.1
2017-05-15T03:51:00.745Z,1028.07
2017-05-15T03:52:23.337Z,1028.08
2017-05-15T03:53:45.880Z,1028.06
2017-05-15T03:55:08.070Z,1028.12
2017-05-15T03:56:30.518Z,1028.14
2017-05-15T03:57:52.349Z,1028.13
2017-05-15T03:59:14.185Z,1028.19
2017-05-15T04:00:35.688Z,1028.19
2017-05-15T04:01:57.574Z,1028.17
2017-05-15T04:03:19.716Z,1028.17
2017-05-15T04:04:41.641Z,1028.19
2017-05-15T04:06:03.789Z,1028.25
2017-05-15T04:07:25.900Z,1028.3
2017-05-15T04:08:48.380Z,1028.28
2017-05-15T04:10:10.859Z,1028.31
2017-05-15T04:11:32.370Z,1028.29
2017-05-15T04:12:54.559Z,1028.31
2017-05-15T04:14:16.684Z,1028.34
2017-05-15T04:15:38.520Z,1028.34
2017-05-15T04:17:00.408Z,1028.37
2017-05-15T04:18:22.839Z,1028.34
2017-05-15T04:19:44.719Z,1028.29
2017-05-15T04:21:06.316Z,1028.37
2017-05-15T04:22:28.207Z,1028.37
2017-05-15T04:23:50.718Z,1028.33
2017-05-15T04:25:12.538Z,1028.4
2017-05-15T04:26:34.745Z,1028.42
2017-05-15T04:27:56.309Z,1028.41
2017-05-15T04:29:18.389Z,1028.44
2017-05-15T04:30:40.535Z,1028.41
2017-05-15T04:32:02.378Z,1028.42
2017-05-15T04:33:24.520Z,1028.46
2017-05-15T04:34:46.409Z,1028.45
2017-05-15T04:36:08.540Z,1028.5
2017-05-15T04:37:31.047Z,1028.51
2017-05-15T04:38:53.089Z,1028.5
2017-05-15T04:40:15.282Z,1028.48
2017-05-15T04:41:36.816Z,1028.52
2017-05-15T04:42:58.399Z,1028.53
2017-05-15T04:44:20.340Z,1028.53
2017-05-15T04:45:42.628Z,1028.57
2017-05-15T04:47:04.449Z,1028.61
2017-05-15T04:48:26.611Z,1028.62
2017-05-15T04:49:49.104Z,1028.64
2017-05-15T04:51:11.599Z,1028.62
2017-05-15T04:52:33.471Z,1028.69
2017-05-15T04:53:55.952Z,1028.67
2017-05-15T04:55:17.491Z,1028.66
2017-05-15T04:56:39.951Z,1028.68
2017-05-15T04:58:01.489Z,1028.69
2017-05-15T04:59:23.693Z,1028.74
2017-05-15T05:00:45.402Z,1028.78
2017-05-15T05:02:07.772Z,1028.83
2017-05-15T05:03:29.649Z,1028.89
2017-05-15T05:04:51.469Z,1028.91
2017-05-15T05:06:13.369Z,1029
2017-05-15T05:07:35.493Z,1029.02
2017-05-15T05:08:57.642Z,1029.01
2017-05-15T05:10:19.783Z,1029.02
2017-05-15T05:11:41.929Z,1029.1
2017-05-15T05:13:03.779Z,1029.13
2017-05-15T05:14:26.280Z,1029.19
2017-05-15T05:15:48.436Z,1029.19
2017-05-15T05:17:10.093Z,1029.24
2017-05-15T05:18:32.576Z,1029.24
2017-05-15T05:19:55.046Z,1029.26
2017-05-15T05:21:16.299Z,1029.32
2017-05-15T05:22:38.779Z,1029.34
2017-05-15T05:24:01.271Z,1029.33
2017-05-15T05:25:23.752Z,1029.38
2017-05-15T05:26:45.609Z,1029.42
2017-05-15T05:28:07.147Z,1029.44
2017-05-15T05:29:29.458Z,1029.54
2017-05-15T05:30:51.929Z,1029.61
2017-05-15T05:32:14.497Z,1029.52
2017-05-15T05:33:36.661Z,1029.43
2017-05-15T05:34:58.542Z,1029.47
2017-05-15T05:36:20.756Z,1029.44
2017-05-15T05:37:42.653Z,1029.48
2017-05-15T05:39:04.228Z,1029.53
2017-05-15T05:40:26.684Z,1029.62
2017-05-15T05:41:48.851Z,1029.58
2017-05-15T05:43:10.709Z,1029.63
2017-05-15T05:44:31.692Z,1029.59
2017-05-15T05:45:54.269Z,1029.65
2017-05-15T05:47:16.441Z,1029.69
2017-05-15T05:48:38.378Z,1029.85
2017-05-15T05:50:00.548Z,1029.93
2017-05-15T05:51:23.136Z,1030
2017-05-15T05:52:45.417Z,1029.87
2017-05-15T05:54:07.119Z,1029.78
2017-05-15T05:55:28.971Z,1029.75
2017-05-15T05:56:51.539Z,1030.01
2017-05-15T05:58:13.468Z,1030.11
2017-05-15T05:59:35.359Z,1030.01
2017-05-15T06:00:57.830Z,1029.89
2017-05-15T06:02:20.330Z,1029.97
2017-05-15T06:03:42.501Z,1030.01
2017-05-15T06:05:04.381Z,1030.05
2017-05-15T06:06:26.238Z,1030.01
2017-05-15T06:07:48.473Z,1030.01
2017-05-15T06:09:10.731Z,1029.9
2017-05-15T06:11:04.327Z,1029.95
2017-05-15T06:12:26.619Z,1029.97
2017-05-15T06:13:49.448Z,1029.97
2017-05-15T06:15:10.670Z,1030.02
2017-05-15T06:16:33.159Z,1029.94
2017-05-15T06:17:55.344Z,1029.93
2017-05-15T06:19:17.187Z,1030
2017-05-15T06:20:39.336Z,1029.99
2017-05-15T06:22:01.491Z,1029.95
2017-05-15T06:23:23.691Z,1030.12
2017-05-15T06:24:45.644Z,1030.15
2017-05-15T06:26:07.593Z,1030.11
2017-05-15T06:27:29.828Z,1030.16
2017-05-15T06:28:52.513Z,1030.23
2017-05-15T06:30:14.730Z,1030.28
2017-05-15T06:31:37.231Z,1030.2
2017-05-15T06:32:58.764Z,1030.24
2017-05-15T06:34:20.854Z,1030.35
2017-05-15T06:35:42.379Z,1030.19
2017-05-15T06:37:04.846Z,1030.39
2017-05-15T06:38:27.064Z,1030.3
2017-05-15T06:39:49.896Z,1030.23
2017-05-15T06:41:11.799Z,1030.27
2017-05-15T06:42:33.726Z,1030.27
2017-05-15T06:43:55.887Z,1030.15
2017-05-15T06:45:18.826Z,1030.22
2017-05-15T06:46:40.976Z,1030.24
2017-05-15T06:48:02.931Z,1030.28
2017-05-15T06:49:25.434Z,1030.34
2017-05-15T06:50:47.941Z,1030.53
2017-05-15T06:52:09.778Z,1030.37
2017-05-15T06:53:31.423Z,1030.61
2017-05-15T06:54:53.259Z,1030.62
2017-05-15T06:56:15.719Z,1030.65
2017-05-15T06:57:37.934Z,1030.64
2017-05-15T06:59:00.099Z,1030.65
2017-05-15T07:00:21.949Z,1030.64
2017-05-15T07:01:43.772Z,1030.62
2017-05-15T07:03:05.361Z,1030.69
2017-05-15T07:04:27.528Z,1030.67
2017-05-15T07:05:49.378Z,1030.68
2017-05-15T07:07:11.889Z,1030.45
2017-05-15T07:08:33.852Z,1030.52
2017-05-15T07:09:56.380Z,1030.74
2017-05-15T07:11:18.558Z,1030.76
2017-05-15T07:12:40.529Z,1030.78
2017-05-15T07:14:02.501Z,1030.63
2017-05-15T07:15:24.029Z,1030.47
2017-05-15T07:16:45.870Z,1030.55
2017-05-15T07:18:08.379Z,1030.61
2017-05-15T07:19:29.731Z,1030.89
2017-05-15T07:20:51.260Z,1030.62
2017-05-15T07:22:13.751Z,1030.51
2017-05-15T07:23:35.538Z,1030.51
2017-05-15T07:24:57.381Z,1030.93
2017-05-15T07:26:19.330Z,1031
2017-05-15T07:27:40.879Z,1031.1
2017-05-15T07:29:03.415Z,1031.13
2017-05-15T07:30:24.962Z,1031.09
2017-05-15T07:31:47.128Z,1031.09
2017-05-15T07:33:08.651Z,1030.92
2017-05-15T07:34:31.439Z,1030.83
2017-05-15T07:35:53.612Z,1030.77
2017-05-15T07:37:15.612Z,1030.79
2017-05-15T07:38:38.088Z,1031.18
2017-05-15T07:40:00.537Z,1031.27
2017-05-15T07:41:22.720Z,1031.25
2017-05-15T07:42:44.560Z,1031.23
2017-05-15T07:44:07.128Z,1031.19
2017-05-15T07:45:29.951Z,1030.87
2017-05-15T07:46:51.859Z,1031.17
2017-05-15T07:48:14.401Z,1031.25
2017-05-15T07:49:36.250Z,1031.25
2017-05-15T07:50:58.406Z,1031.3
2017-05-15T07:52:20.262Z,1031.3
2017-05-15T07:53:42.098Z,1031.09
2017-05-15T07:55:03.957Z,1030.9
2017-05-15T07:56:26.438Z,1031.25
2017-05-15T07:57:48.355Z,1031.23
2017-05-15T07:59:10.534Z,1031.18
2017-05-15T08:00:31.780Z,1031.23
2017-05-15T08:01:54.559Z,1031.19
2017-05-15T08:03:16.884Z,1031.09
2017-05-15T08:04:38.734Z,1031.01
2017-05-15T08:06:00.653Z,1031.01
2017-05-15T08:07:23.519Z,1030.93
2017-05-15T08:08:45.746Z,1030.96
2017-05-15T08:10:07.946Z,1030.92
2017-05-15T08:12:01.900Z,1030.82
2017-05-15T08:13:24.372Z,1030.83
2017-05-15T08:14:46.648Z,1030.81
2017-05-15T08:16:08.832Z,1030.79
2017-05-15T08:17:30.973Z,1030.82
2017-05-15T08:18:53.140Z,1030.87
2017-05-15T08:20:14.990Z,1030.91
2017-05-15T08:21:36.947Z,1030.94
2017-05-15T08:22:58.808Z,1030.92
2017-05-15T08:24:21.010Z,1030.9
2017-05-15T08:25:43.521Z,1030.97
2017-05-15T08:27:05.058Z,1030.91
2017-05-15T08:28:26.878Z,1030.86
2017-05-15T08:29:48.423Z,1030.89
2017-05-15T08:31:10.595Z,1030.86
2017-05-15T08:32:32.761Z,1030.9
2017-05-15T08:33:55.178Z,1030.87
2017-05-15T08:35:17.675Z,1030.84
2017-05-15T08:36:39.592Z,1030.86
2017-05-15T08:38:01.505Z,1030.85
2017-05-15T08:39:23.720Z,1030.83
2017-05-15T08:40:45.318Z,1030.85
2017-05-15T08:42:06.839Z,1030.82
2017-05-15T08:43:29.007Z,1030.84
2017-05-15T08:44:51.189Z,1030.82
2017-05-15T08:46:13.030Z,1030.81
2017-05-15T08:47:35.204Z,1030.83
2017-05-15T08:48:57.098Z,1030.81
2017-05-15T08:50:19.782Z,1030.9
2017-05-15T08:51:41.308Z,1030.92
2017-05-15T08:53:03.827Z,1030.9
2017-05-15T08:54:26.047Z,1030.88
2017-05-15T08:55:48.820Z,1030.9
2017-05-15T08:57:10.363Z,1030.88
2017-05-15T08:58:32.508Z,1030.9
2017-05-15T08:59:54.361Z,1030.89
2017-05-15T09:01:16.959Z,1030.91
2017-05-15T09:02:38.910Z,1030.91
2017-05-15T09:04:01.088Z,1030.94
2017-05-15T09:05:23.571Z,1030.99
2017-05-15T09:06:45.762Z,1030.95
2017-05-15T09:08:08.278Z,1031.02
2017-05-15T09:09:30.105Z,1031.01
2017-05-15T09:10:51.993Z,1031.06
2017-05-15T09:12:14.436Z,1031.03
2017-05-15T09:13:36.597Z,1031.05
2017-05-15T09:14:58.211Z,1031.03
2017-05-15T09:16:20.357Z,1031.03
2017-05-15T09:17:42.588Z,1031.03
2017-05-15T09:19:04.251Z,1031.01
2017-05-15T09:20:26.087Z,1031.03
2017-05-15T09:21:47.947Z,1031.04
2017-05-15T09:23:10.397Z,1031.07
2017-05-15T09:24:32.248Z,1031.14
2017-05-15T09:25:53.580Z,1031.12
2017-05-15T09:27:16.186Z,1031.06
2017-05-15T09:28:38.688Z,1031.1
2017-05-15T09:30:01.189Z,1031.1
2017-05-15T09:31:23.347Z,1031.11
2017-05-15T09:32:45.197Z,1031.09
2017-05-15T09:34:07.107Z,1031.15
2017-05-15T09:35:28.974Z,1031.17
2017-05-15T09:36:51.249Z,1031.17
2017-05-15T09:38:13.449Z,1031.22
2017-05-15T09:39:35.622Z,1031.19
2017-05-15T09:40:57.498Z,1031.22
2017-05-15T09:42:20.060Z,1031.17
2017-05-15T09:43:42.289Z,1031.21
2017-05-15T09:45:04.527Z,1031.2
2017-05-15T09:46:27.039Z,1031.15
2017-05-15T09:47:48.873Z,1031.18
2017-05-15T09:49:11.027Z,1031.16
2017-05-15T09:50:33.166Z,1031.22
2017-05-15T09:51:55.335Z,1031.24
2017-05-15T09:53:17.808Z,1031.23
2017-05-15T09:54:39.953Z,1031.23
2017-05-15T09:56:02.420Z,1031.17
2017-05-15T09:57:24.987Z,1031.2
2017-05-15T09:58:47.149Z,1031.2
2017-05-15T10:00:08.338Z,1031.2
2017-05-15T10:01:30.853Z,1031.19
2017-05-15T10:02:53.056Z,1031.18
2017-05-15T10:04:14.922Z,1031.21
2017-05-15T10:05:37.457Z,1031.17
2017-05-15T10:07:00.246Z,1031.2
2017-05-15T10:08:22.731Z,1031.13
2017-05-15T10:09:44.040Z,1031.15
2017-05-15T10:11:06.522Z,1031.13
2017-05-15T10:12:28.820Z,1031.1
2017-05-15T10:13:50.783Z,1031.12
2017-05-15T10:15:12.927Z,1031.08
2017-05-15T10:16:34.778Z,1031.14
2017-05-15T10:17:56.614Z,1031.07
2017-05-15T10:19:18.457Z,1031.08
2017-05-15T10:20:40.616Z,1031.04
2017-05-15T10:22:02.831Z,1031.08
2017-05-15T10:23:25.738Z,1031.02
2017-05-15T10:24:47.577Z,1031
2017-05-15T10:26:09.783Z,1031
2017-05-15T10:27:31.958Z,1031.02
2017-05-15T10:28:54.186Z,1030.95
2017-05-15T10:30:15.733Z,1030.96
2017-05-15T10:31:37.962Z,1030.94
2017-05-15T10:32:59.631Z,1030.94
2017-05-15T10:34:22.532Z,1030.94
2017-05-15T10:35:44.692Z,1030.9
2017-05-15T10:37:39.225Z,1030.95
2017-05-15T10:39:01.084Z,1030.92
2017-05-15T10:40:23.341Z,1030.92
2017-05-15T10:41:45.293Z,1030.88
2017-05-15T10:43:07.132Z,1030.84
2017-05-15T10:44:29.469Z,1030.84
2017-05-15T10:45:51.722Z,1030.87
2017-05-15T10:47:14.226Z,1030.83
2017-05-15T10:48:35.757Z,1030.82
2017-05-15T10:49:57.990Z,1030.79
2017-05-15T10:51:20.499Z,1030.83
2017-05-15T10:52:42.971Z,1030.88
2017-05-15T10:54:04.853Z,1030.8
2017-05-15T10:55:26.987Z,1030.86
2017-05-15T10:56:48.922Z,1030.81
2017-05-15T10:58:10.457Z,1030.79
2017-05-15T10:59:32.307Z,1030.8
2017-05-15T11:00:54.604Z,1030.78
2017-05-15T11:02:16.774Z,1030.75
2017-05-15T11:03:38.148Z,1030.74
2017-05-15T11:05:00.035Z,1030.72
2017-05-15T11:06:22.166Z,1030.7
2017-05-15T11:07:44.526Z,1030.69
2017-05-15T11:09:06.482Z,1030.67
2017-05-15T11:10:28.069Z,1030.71
2017-05-15T11:11:50.572Z,1030.76
2017-05-15T11:13:12.158Z,1030.77
2017-05-15T11:14:34.339Z,1030.77
2017-05-15T11:15:56.535Z,1030.73
2017-05-15T11:17:18.722Z,1030.72
2017-05-15T11:18:40.872Z,1030.7
2017-05-15T11:20:02.708Z,1030.72
2017-05-15T11:21:24.018Z,1030.71
2017-05-15T11:22:45.801Z,1030.67
2017-05-15T11:24:07.671Z,1030.72
2017-05-15T11:25:29.508Z,1030.69
2017-05-15T11:26:51.708Z,1030.76
2017-05-15T11:28:13.887Z,1030.76
2017-05-15T11:29:35.796Z,1030.75
2017-05-15T11:30:57.337Z,1030.78
2017-05-15T11:32:19.178Z,1030.75
2017-05-15T11:33:41.699Z,1030.77
2017-05-15T11:35:03.538Z,1030.79
2017-05-15T11:36:26.047Z,1030.72
2017-05-15T11:37:48.218Z,1030.76
2017-05-15T11:39:11.073Z,1030.75
2017-05-15T11:40:33.297Z,1030.77
2017-05-15T11:41:55.661Z,1030.8
2017-05-15T11:43:17.175Z,1030.77
2017-05-15T11:44:39.011Z,1030.75
2017-05-15T11:46:00.849Z,1030.78
2017-05-15T11:47:23.006Z,1030.86
2017-05-15T11:48:44.856Z,1030.81
2017-05-15T11:50:07.404Z,1030.83
2017-05-15T11:51:29.888Z,1030.86
2017-05-15T11:52:52.409Z,1030.85
2017-05-15T11:54:14.330Z,1030.76
2017-05-15T11:55:37.086Z,1030.79
2017-05-15T11:56:58.627Z,1030.8
2017-05-15T11:58:21.148Z,1030.81
2017-05-15T11:59:43.318Z,1030.79
2017-05-15T12:01:05.828Z,1030.78
2017-05-15T12:02:28.348Z,1030.74
2017-05-15T12:03:50.828Z,1030.69
2017-05-15T12:05:13.021Z,1030.72
2017-05-15T12:06:35.505Z,1030.78
2017-05-15T12:07:57.674Z,1030.75
2017-05-15T12:09:19.873Z,1030.79
2017-05-15T12:10:41.522Z,1030.75
2017-05-15T12:12:04.480Z,1030.71
2017-05-15T12:13:26.118Z,1030.72
2017-05-15T12:14:47.959Z,1030.75
2017-05-15T12:16:09.930Z,1030.74
2017-05-15T12:17:32.856Z,1030.77
2017-05-15T12:18:55.026Z,1030.79
2017-05-15T12:20:16.579Z,1030.82
2017-05-15T12:21:38.761Z,1030.78
2017-05-15T12:23:00.551Z,1030.77
2017-05-15T12:24:22.720Z,1030.78
2017-05-15T12:25:44.563Z,1030.81
2017-05-15T12:27:06.437Z,1030.85
2017-05-15T12:28:29.258Z,1030.86
2017-05-15T12:29:51.422Z,1030.84
2017-05-15T12:31:13.052Z,1030.82
2017-05-15T12:32:35.581Z,1030.85
2017-05-15T12:33:58.356Z,1030.89
2017-05-15T12:35:20.350Z,1030.88
2017-05-15T12:36:41.997Z,1030.93
2017-05-15T12:38:04.246Z,1030.88
2017-05-15T12:39:27.069Z,1030.88
2017-05-15T12:40:49.678Z,1030.89
2017-05-15T12:42:11.846Z,1030.84
2017-05-15T12:43:33.767Z,1030.78
2017-05-15T12:44:56.557Z,1030.75
2017-05-15T12:46:18.732Z,1030.75
2017-05-15T12:47:41.069Z,1030.69
2017-05-15T12:49:03.557Z,1030.68
2017-05-15T12:50:25.829Z,1030.67
2017-05-15T12:51:47.876Z,1030.68
2017-05-15T12:53:10.395Z,1030.67
2017-05-15T12:54:32.012Z,1030.65
2017-05-15T12:55:53.981Z,1030.65
2017-05-15T12:57:15.836Z,1030.66
2017-05-15T12:58:37.727Z,1030.63
2017-05-15T12:59:59.268Z,1030.63
2017-05-15T13:01:21.853Z,1030.65
2017-05-15T13:02:44.028Z,1030.64
2017-05-15T13:04:06.517Z,1030.69
2017-05-15T13:05:29.031Z,1030.67
2017-05-15T13:06:51.576Z,1030.61
2017-05-15T13:08:13.759Z,1030.68
2017-05-15T13:09:36.031Z,1030.69
2017-05-15T13:10:57.980Z,1030.64
2017-05-15T13:12:20.839Z,1030.64
2017-05-15T13:13:43.424Z,1030.66
2017-05-15T13:15:05.567Z,1030.71
2017-05-15T13:16:27.529Z,1030.7
2017-05-15T13:17:50.005Z,1030.68
2017-05-15T13:19:12.181Z,1030.69
2017-05-15T13:20:34.361Z,1030.69
2017-05-15T13:21:56.231Z,1030.67
2017-05-15T13:23:19.115Z,1030.69
2017-05-15T13:24:40.979Z,1030.66
2017-05-15T13:26:03.146Z,1030.66
2017-05-15T13:27:25.337Z,1030.63
2017-05-15T13:28:47.919Z,1030.63
2017-05-15T13:30:10.096Z,1030.66
2017-05-15T13:31:32.592Z,1030.66
2017-05-15T13:32:54.788Z,1030.6
2017-05-15T13:34:17.098Z,1030.6
2017-05-15T13:35:39.583Z,1030.58
2017-05-15T13:37:00.794Z,1030.58
2017-05-15T13:38:23.306Z,1030.62
2017-05-15T13:39:46.354Z,1030.53
2017-05-15T13:41:08.527Z,1030.54
2017-05-15T13:42:30.453Z,1030.5
2017-05-15T13:43:52.946Z,1030.5
2017-05-15T13:45:15.811Z,1030.51
2017-05-15T13:46:38.322Z,1030.47
2017-05-15T13:48:00.041Z,1030.46
2017-05-15T13:49:21.930Z,1030.47
2017-05-15T13:50:44.717Z,1030.45
2017-05-15T13:52:07.192Z,1030.45
2017-05-15T13:53:29.377Z,1030.46
2017-05-15T13:54:52.071Z,1030.47
2017-05-15T13:56:14.502Z,1030.45
2017-05-15T13:57:36.362Z,1030.49
2017-05-15T13:58:58.843Z,1030.52
2017-05-15T14:00:20.999Z,1030.47
2017-05-15T14:01:43.144Z,1030.5
2017-05-15T14:03:04.986Z,1030.44
2017-05-15T14:04:27.296Z,1030.41
2017-05-15T14:05:49.889Z,1030.43
2017-05-15T14:07:12.364Z,1030.46
2017-05-15T14:08:35.017Z,1030.42
2017-05-15T14:09:57.081Z,1030.42
2017-05-15T14:11:18.915Z,1030.4
2017-05-15T14:12:41.109Z,1030.35
2017-05-15T14:14:03.602Z,1030.33
2017-05-15T14:15:25.812Z,1030.3
2017-05-15T14:16:47.691Z,1030.32
2017-05-15T14:18:09.854Z,1030.33
2017-05-15T14:19:31.707Z,1030.28
2017-05-15T14:20:52.956Z,1030.27
2017-05-15T14:22:14.931Z,1030.26
2017-05-15T14:23:37.077Z,1030.25
2017-05-15T14:24:59.249Z,1030.26
2017-05-15T14:26:21.747Z,1030.24
2017-05-15T14:27:44.250Z,1030.23
2017-05-15T14:29:06.832Z,1030.19
2017-05-15T14:30:28.385Z,1030.16
2017-05-15T14:31:50.921Z,1030.16
2017-05-15T14:33:13.110Z,1030.18
2017-05-15T14:34:35.901Z,1030.16
2017-05-15T14:35:57.475Z,1030.12
2017-05-15T14:37:19.733Z,1030.19
2017-05-15T14:38:40.930Z,1030.18
2017-05-15T14:40:03.932Z,1030.18
2017-05-15T14:41:26.157Z,1030.16
2017-05-15T14:42:48.658Z,1030.07
2017-05-15T14:44:10.571Z,1030.06
2017-05-15T14:45:33.428Z,1030.15
2017-05-15T14:46:55.982Z,1030.12
2017-05-15T14:48:18.132Z,1030.02
2017-05-15T14:49:39.356Z,1030.01
2017-05-15T14:51:01.627Z,1029.96
2017-05-15T14:52:23.159Z,1029.96
2017-05-15T14:53:45.756Z,1029.99
2017-05-15T14:55:07.641Z,1029.98
2017-05-15T14:56:30.498Z,1029.97
2017-05-15T14:57:53.065Z,1030.02
2017-05-15T14:59:15.249Z,1029.96
2017-05-15T15:00:37.418Z,1029.97
2017-05-15T15:02:00.235Z,1029.99
2017-05-15T15:03:21.866Z,1029.95
2017-05-15T15:04:43.724Z,1029.95
2017-05-15T15:06:05.964Z,1029.98
2017-05-15T15:07:28.766Z,1029.99
2017-05-15T15:08:50.627Z,1030.01
2017-05-15T15:10:12.492Z,1030.04
2017-05-15T15:11:34.987Z,1030.03
2017-05-15T15:12:57.492Z,1030.05
2017-05-15T15:14:19.036Z,1030.02
2017-05-15T15:15:40.895Z,1030.02
2017-05-15T15:17:03.167Z,1030.01
2017-05-15T15:18:25.615Z,1029.99
2017-05-15T15:19:47.135Z,1029.95
2017-05-15T15:21:09.304Z,1029.97
2017-05-15T15:22:31.700Z,1029.97
2017-05-15T15:23:54.642Z,1029.94
2017-05-15T15:25:17.124Z,1029.93
2017-05-15T15:26:38.331Z,1029.92
2017-05-15T15:28:00.834Z,1029.94
2017-05-15T15:29:23.666Z,1029.95
2017-05-15T15:30:46.279Z,1029.92
2017-05-15T15:32:07.485Z,1029.92
2017-05-15T15:33:29.337Z,1029.94
2017-05-15T15:34:51.224Z,1029.91
2017-05-15T15:36:13.396Z,1029.91
2017-05-15T15:37:35.562Z,1029.89
2017-05-15T15:38:57.749Z,1029.83
2017-05-15T15:40:20.293Z,1029.9
2017-05-15T15:41:42.476Z,1029.89
2017-05-15T15:43:04.316Z,1029.86
2017-05-15T15:44:26.236Z,1029.88
2017-05-15T15:45:48.966Z,1029.86
2017-05-15T15:47:11.468Z,1029.88
2017-05-15T15:48:32.985Z,1029.88
2017-05-15T15:49:55.163Z,1029.89
2017-05-15T15:51:16.636Z,1029.9
2017-05-15T15:52:38.186Z,1029.83
2017-05-15T15:54:00.676Z,1029.89
2017-05-15T15:55:23.153Z,1029.87
2017-05-15T15:56:45.310Z,1029.91
2017-05-15T15:58:07.500Z,1029.9
2017-05-15T15:59:29.155Z,1029.92
2017-05-15T16:00:51.636Z,1029.94
2017-05-15T16:02:14.085Z,1029.89
2017-05-15T16:03:35.923Z,1029.91
2017-05-15T16:04:57.772Z,1029.97
2017-05-15T16:06:19.297Z,1029.95
2017-05-15T16:07:41.707Z,1029.96
2017-05-15T16:09:04.215Z,1029.93
2017-05-15T16:10:26.729Z,1029.97
2017-05-15T16:11:49.215Z,1029.95
2017-05-15T16:13:11.458Z,1029.92
2017-05-15T16:14:33.632Z,1029.88
2017-05-15T16:15:55.486Z,1029.91
2017-05-15T16:17:17.344Z,1029.88
2017-05-15T16:18:39.756Z,1029.86
2017-05-15T16:20:02.091Z,1029.88
2017-05-15T16:21:23.665Z,1029.84
2017-05-15T16:22:45.216Z,1029.83
2017-05-15T16:24:07.502Z,1029.8
2017-05-15T16:25:30.010Z,1029.73
2017-05-15T16:26:51.564Z,1029.72
2017-05-15T16:28:14.124Z,1029.64
2017-05-15T16:29:36.538Z,1029.69
2017-05-15T16:30:59.028Z,1029.63
2017-05-15T16:32:21.209Z,1029.68
2017-05-15T16:33:43.191Z,1029.65
2017-05-15T16:35:05.773Z,1029.63
2017-05-15T16:36:27.814Z,1029.6
2017-05-15T16:37:49.989Z,1029.59